Observations for YEOVILTON NAVY, United Kingdom (EGDY)

EGDY 211750Z AUTO 25012KT 6000 -RA SCT011/// BKN022/// 12/11 Q1007  
EGDY 211650Z AUTO 25013KT 9999 -RA SCT014/// BKN028/// 12/11 Q1007  
EGDY 211550Z AUTO 25009KT 9999 OVC013/// 12/11 Q1008 RERA   
EGDY 211450Z AUTO 25006KT 9999 -RADZ BKN012/// 11/11 Q1008  
EGDY 211350Z AUTO 20005KT 4300 RA FEW015/// BKN029/// 10/10 Q1009   
EGDY 211250Z AUTO 17006KT 3200 +RA BKN011/// 09/09 Q1009
EGDY 211150Z AUTO 14009KT 4700 RA BKN012/// 08/08 Q1010 
EGDY 211050Z AUTO 13010KT 4400 RA FEW005/// BKN015/// BKN022/// 07/06 Q1011 
EGDY 210950Z AUTO 13012KT 8000 RA FEW006/// BKN022/// 06/05 Q1011   
EGDY 210850Z AUTO 13010KT 5000 RA FEW007/// BKN010/// 05/04 Q1012   
EGDY 210750Z AUTO 12008KT 3700 -DZ FEW006/// SCT014/// BKN021/// 04/03 Q1012
EGDY 210650Z AUTO 14008KT 2000 RADZ BKN013/// 03/03 Q1013   
EGDY 210550Z AUTO 12006KT 5000 -DZ BKN018/// BKN035/// BKN044/// 03/03 Q1013
EGDY 210450Z AUTO 12005KT 6000 BR SCT022/// BKN050/// 03/02 Q1014 RERA  
EGDY 210350Z AUTO 12006KT 8000 -DZ FEW007/// OVC050/// 03/02 Q1014  
EGDY 210250Z AUTO 09003KT 3700 BR BKN007/// BKN070/// 03/02 Q1014   
EGDY 210150Z AUTO 00000KT 5000 BR SCT007/// BKN090/// 03/02 Q1013   
EGDY 210050Z AUTO 06004KT 6000 BR SCT010/// OVC100/// 03/02 Q1013   
EGDY 202350Z AUTO 12001KT 4900 BR BKN100/// 02/01 Q1013 
EGDY 202250Z AUTO 34003KT 9999 BKN008/// BKN012/// BKN021/// 03/02 Q1011
EGDY 202150Z AUTO 01007KT 9999 BKN009/// 03/02 Q1010
EGDY 202050Z AUTO 36009KT 9999 SCT007/// 04/03 Q1009
EGDY 201950Z AUTO 35008KT 9999 FEW009/// BKN022/// 05/04 Q1007  
EGDY 201850Z AUTO 01010KT 9999 FEW008/// BKN016/// 06/05 Q1005  
EGDY 201750Z AUTO 30026G38KT 9999 FEW033/// SCT038/// 10/07 Q1001